createdAt,value
2022-09-29T03:58:45.823Z,12.00
2022-09-29T04:02:48.779Z,12.02
2022-09-29T04:06:32.146Z,11.98
2022-09-29T04:10:15.207Z,11.96
2022-09-29T04:14:18.842Z,11.95
2022-09-29T04:18:03.412Z,11.91
2022-09-29T04:21:57.717Z,12.02
2022-09-29T04:25:45.460Z,11.91
2022-09-29T04:29:48.524Z,11.85
2022-09-29T04:33:31.428Z,11.83
2022-09-29T04:37:14.772Z,11.78
2022-09-29T04:40:18.422Z,11.81
2022-09-29T04:43:49.806Z,11.82
2022-09-29T04:47:17.582Z,11.85
2022-09-29T04:51:00.757Z,11.78
2022-09-29T04:54:23.381Z,11.69
2022-09-29T04:57:30.573Z,11.65
2022-09-29T05:00:37.738Z,11.75
2022-09-29T05:04:00.850Z,11.63
2022-09-29T05:07:03.688Z,11.43
2022-09-29T05:10:11.312Z,11.47
2022-09-29T05:13:25.040Z,11.35
2022-09-29T05:16:29.015Z,11.08
2022-09-29T05:19:32.274Z,11.04
2022-09-29T05:22:35.623Z,10.91
2022-09-29T05:25:38.805Z,11.07
2022-09-29T05:28:46.321Z,11.07
2022-09-29T05:31:51.922Z,11.01
2022-09-29T05:34:55.722Z,11.08
2022-09-29T05:37:58.570Z,11.19
2022-09-29T05:41:12.447Z,11.20
2022-09-29T05:44:35.537Z,11.12
2022-09-29T05:48:22.700Z,11.08
2022-09-29T05:51:46.184Z,11.05
2022-09-29T05:55:10.677Z,11.03
2022-09-29T05:58:23.646Z,11.02
2022-09-29T06:01:51.329Z,11.06
2022-09-29T06:05:00.553Z,11.11
2022-09-29T06:08:12.565Z,11.22
2022-09-29T06:11:37.002Z,11.17
2022-09-29T06:14:45.205Z,11.17
2022-09-29T06:18:01.271Z,11.13
2022-09-29T06:21:50.834Z,11.16
2022-09-29T06:32:25.586Z,11.16
2022-09-29T06:35:49.334Z,11.28
2022-09-29T06:38:52.097Z,11.40
2022-09-29T06:41:56.368Z,11.41
2022-09-29T06:44:59.514Z,11.53
2022-09-29T06:48:03.412Z,11.55
2022-09-29T06:51:10.612Z,11.76
2022-09-29T06:54:15.976Z,11.84
2022-09-29T06:57:19.030Z,12.08
2022-09-29T07:00:22.192Z,11.93
2022-09-29T07:03:25.256Z,12.11
2022-09-29T07:06:31.470Z,12.03
2022-09-29T07:09:34.248Z,12.02
2022-09-29T07:12:37.725Z,12.14
2022-09-29T07:15:40.431Z,12.35
2022-09-29T07:18:44.863Z,12.22
2022-09-29T07:21:50.145Z,12.45
2022-09-29T07:24:55.365Z,12.62
2022-09-29T07:27:58.264Z,12.66
2022-09-29T07:31:13.646Z,12.72
2022-09-29T07:34:21.915Z,12.99
2022-09-29T07:37:27.245Z,13.09
2022-09-29T07:40:34.788Z,13.17
2022-09-29T07:43:38.852Z,13.93
2022-09-29T07:50:07.680Z,13.38
2022-09-29T07:53:19.596Z,13.30
2022-09-29T07:56:23.755Z,13.02
2022-09-29T07:59:27.765Z,13.41
2022-09-29T08:02:31.310Z,13.43
2022-09-29T08:05:34.821Z,13.44
2022-09-29T08:08:42.405Z,13.67
2022-09-29T08:11:49.662Z,13.77
2022-09-29T08:14:56.306Z,13.95
2022-09-29T08:17:59.326Z,14.03
2022-09-29T08:21:03.883Z,14.15
2022-09-29T08:24:08.667Z,14.23
2022-09-29T08:27:17.723Z,14.25
2022-09-29T08:30:22.612Z,14.70
2022-09-29T08:33:25.361Z,15.22
2022-09-29T08:36:28.487Z,15.18
2022-09-29T08:39:31.593Z,15.34
2022-09-29T08:42:53.329Z,15.77
2022-09-29T08:46:01.973Z,15.53
2022-09-29T08:49:28.229Z,15.85
2022-09-29T08:53:02.777Z,16.10
2022-09-29T08:56:16.106Z,16.25
2022-09-29T08:59:19.043Z,16.39
2022-09-29T09:02:38.889Z,15.88
2022-09-29T09:05:41.633Z,15.65
2022-09-29T09:09:10.339Z,15.82
2022-09-29T09:12:51.878Z,16.45
2022-09-29T09:16:09.511Z,16.87
2022-09-29T09:19:21.845Z,16.84
2022-09-29T09:22:54.228Z,17.05
2022-09-29T09:26:04.234Z,17.06
2022-09-29T09:29:20.111Z,16.90
2022-09-29T09:32:30.540Z,17.14
2022-09-29T09:35:59.300Z,17.25
2022-09-29T09:39:11.513Z,17.92
2022-09-29T09:42:20.237Z,17.85
2022-09-29T09:45:55.421Z,17.28
2022-09-29T09:49:17.801Z,17.51
2022-09-29T09:52:27.411Z,17.05
2022-09-29T09:55:35.081Z,16.44
2022-09-29T09:59:16.308Z,16.84
2022-09-29T10:02:22.457Z,17.47
2022-09-29T10:05:41.309Z,17.89
2022-09-29T10:08:50.173Z,17.15
2022-09-29T10:16:07.083Z,17.13
2022-09-29T10:19:11.180Z,17.47
2022-09-29T10:26:10.133Z,18.03
2022-09-29T10:29:42.992Z,17.33
2022-09-29T10:32:47.337Z,17.17
2022-09-29T10:35:52.621Z,17.17
2022-09-29T10:38:59.605Z,17.47
2022-09-29T10:42:21.953Z,17.61
2022-09-29T10:45:30.831Z,17.39
2022-09-29T10:52:15.454Z,17.17
2022-09-29T10:55:26.222Z,17.20
2022-09-29T10:59:06.458Z,16.92
2022-09-29T11:02:04.552Z,16.84
2022-09-29T11:05:26.249Z,16.83
2022-09-29T11:08:30.185Z,16.44
2022-09-29T11:11:53.597Z,16.32
2022-09-29T11:15:02.221Z,16.30
2022-09-29T11:18:23.314Z,16.20
2022-09-29T11:21:42.480Z,16.31
2022-09-29T11:25:05.059Z,16.20
2022-09-29T11:28:26.388Z,15.98
2022-09-29T11:31:44.179Z,15.81
2022-09-29T11:34:59.710Z,15.71
2022-09-29T11:38:32.221Z,15.71
2022-09-29T11:41:55.819Z,15.65
2022-09-29T11:45:04.576Z,15.57
2022-09-29T11:48:46.356Z,15.66
2022-09-29T11:52:23.734Z,15.55
2022-09-29T11:56:15.081Z,15.51
2022-09-29T11:59:47.519Z,15.48
2022-09-29T12:02:59.750Z,15.46
2022-09-29T12:06:29.868Z,15.70
2022-09-29T12:09:33.384Z,15.66
2022-09-29T12:12:55.568Z,15.91
2022-09-29T12:16:34.108Z,15.93
2022-09-29T12:19:40.628Z,15.89
2022-09-29T12:22:47.431Z,16.05
2022-09-29T12:25:57.458Z,16.33
2022-09-29T12:29:32.335Z,16.36
2022-09-29T12:33:10.716Z,16.46
2022-09-29T12:36:54.144Z,16.50
2022-09-29T12:40:04.346Z,16.52
2022-09-29T12:43:22.523Z,16.49
2022-09-29T12:46:37.459Z,16.36
2022-09-29T12:49:58.489Z,16.40
2022-09-29T12:53:18.195Z,16.67
2022-09-29T12:57:02.843Z,16.77
2022-09-29T13:00:32.829Z,16.42
2022-09-29T13:04:16.156Z,15.97
2022-09-29T13:07:25.305Z,15.69
2022-09-29T13:11:04.276Z,15.78
2022-09-29T13:18:02.556Z,16.22
2022-09-29T13:21:44.615Z,16.18
2022-09-29T13:25:16.655Z,16.06
2022-09-29T13:32:08.342Z,15.67
2022-09-29T13:35:28.086Z,15.67
2022-09-29T13:38:37.019Z,15.87
2022-09-29T13:41:47.750Z,15.85
2022-09-29T13:45:27.961Z,15.84
2022-09-29T13:48:48.704Z,16.04
2022-09-29T13:52:01.687Z,15.87
2022-09-29T13:55:44.068Z,15.92
2022-09-29T13:59:02.550Z,16.00
2022-09-29T14:02:30.320Z,15.99
2022-09-29T14:05:39.507Z,15.95
2022-09-29T14:09:01.957Z,16.01
2022-09-29T14:12:16.920Z,15.75
2022-09-29T14:15:23.116Z,15.73
